Saint George, Canada
Current Conditions -  °F | °C
As of 4:00 PM on Tuesday 21 Oct 2014 (Local Time) from CYSJ Reporting Station
Overcast Overcast  
Wind Chill: 12°   Ceiling: 26000
Heat Index: 12°   Visibility: 15mi
Dew Point:   Wind: 0mph
Humidity: 51%   Direction: NA
Pressure: 30.14"   Gusts: NA
Location:  45.13°N, 66.82°W
Report Text: CYSJ 211900Z 00000KT 15SM FEW100 OVC260 12/02 A3014 RMK AC1CI7 SLP211
Loading
Personal Weather Stations






























Interactive Weather Map
Tropical Storm Tracking
New forecast layout! Learn more

10-Day Weather Forecast

Advertisements
Track Severe Weather on mobile